Time;durP1;ratioP1;P1;durP2;ratioP2;P2;SDS_P1;SDS_P2;PMS_P1;PMS_P2;Temp;Humidity;BMP_temperature;BMP_pressure;BME280_temperature;BME280_humidity;BME280_pressure;Samples;Min_cycle;Max_cycle;Signal;HPM_P1;HPM_P2
2020/12/30 00:12:15;;;;;;;26.17;11.40;;;;;;;2.83;100.00;98911.50;9936038;88;21108;-89
2020/12/30 00:27:20;;;;;;;28.10;12.00;;;;;;;2.82;100.00;98924.13;9931419;88;21701;-87
2020/12/30 00:42:29;;;;;;;24.07;11.65;;;;;;;2.47;100.00;98943.17;10122500;87;21087;-87
2020/12/30 00:57:34;;;;;;;19.35;9.25;;;;;;;2.53;100.00;98974.24;10124625;87;21156;-87
2020/12/30 01:12:39;;;;;;;16.37;9.08;;;;;;;2.66;100.00;98997.45;9942156;88;21133;-88
2020/12/30 01:27:43;;;;;;;21.57;10.48;;;;;;;2.91;100.00;98990.41;9948911;88;21891;-89
2020/12/30 01:42:49;;;;;;;20.95;9.13;;;;;;;2.29;100.00;99023.50;9942364;88;21167;-88
2020/12/30 01:57:53;;;;;;;21.15;10.10;;;;;;;2.28;100.00;99038.67;9960510;88;21621;-87
2020/12/30 02:12:58;;;;;;;21.95;10.65;;;;;;;2.25;100.00;99042.30;9934995;88;21135;-86
2020/12/30 02:28:03;;;;;;;26.25;12.37;;;;;;;2.04;100.00;99052.45;10074822;86;21120;-88
2020/12/30 02:43:07;;;;;;;18.60;9.73;;;;;;;1.61;100.00;99063.27;10114549;86;21152;-87
2020/12/30 02:58:12;;;;;;;19.00;11.10;;;;;;;1.41;100.00;99073.27;10119337;86;21466;-88
2020/12/30 03:13:16;;;;;;;43.63;18.40;;;;;;;1.41;100.00;99073.27;10121217;86;21574;-86
2020/12/30 03:28:21;;;;;;;19.77;9.88;;;;;;;1.37;100.00;99077.45;10125911;86;21288;-88
2020/12/30 03:43:25;;;;;;;24.37;10.75;;;;;;;1.41;100.00;99089.22;10115288;86;21144;-87
2020/12/30 03:58:29;;;;;;;24.72;12.73;;;;;;;1.35;100.00;99099.97;9966639;88;21121;-85
2020/12/30 04:13:34;;;;;;;20.32;10.63;;;;;;;1.35;100.00;99099.97;9962492;88;21491;-85
2020/12/30 04:28:39;;;;;;;24.27;10.00;;;;;;;1.28;100.00;99091.36;9959844;88;21212;-86
2020/12/30 04:43:45;;;;;;;25.32;10.03;;;;;;;1.30;100.00;99102.41;9967914;88;21203;-85
2020/12/30 04:58:51;;;;;;;26.43;11.33;;;;;;;1.23;100.00;99109.38;9962365;88;21029;-90
2020/12/30 05:13:55;;;;;;;19.67;11.17;;;;;;;1.27;100.00;99124.59;9940947;87;21140;-90
2020/12/30 05:29:00;;;;;;;62.33;27.48;;;;;;;1.09;100.00;99128.42;9946251;88;21060;-90
2020/12/30 05:44:19;;;;;;;378.18;124.82;;;;;;;0.86;100.00;99157.05;9958563;88;21234;-90
2020/12/30 05:59:26;;;;;;;83.40;35.95;;;;;;;0.77;100.00;99184.32;9954598;87;21135;-90
2020/12/30 06:14:32;;;;;;;191.50;74.45;;;;;;;0.77;100.00;99184.32;9974787;87;21033;-90
2020/12/30 06:29:37;;;;;;;295.13;129.43;;;;;;;0.75;100.00;99219.72;10041005;86;21108;-90
2020/12/30 06:44:43;;;;;;;47.80;20.52;;;;;;;0.80;100.00;99237.86;10054085;87;21275;-91
2020/12/30 06:59:48;;;;;;;57.53;25.20;;;;;;;0.88;100.00;99267.06;10031475;88;21219;-90
2020/12/30 07:14:52;;;;;;;181.37;75.67;;;;;;;0.83;100.00;99304.82;9953406;88;21647;-91
2020/12/30 07:30:00;;;;;;;197.80;85.62;;;;;;;0.83;100.00;99304.82;9898317;87;21112;-92
2020/12/30 07:45:09;;;;;;;285.93;111.55;;;;;;;0.77;100.00;99314.23;9900222;88;21572;-91
2020/12/30 08:00:20;;;;;;;180.70;70.03;;;;;;;0.80;100.00;99315.33;9941453;88;22206;-93
2020/12/30 08:15:24;;;;;;;106.80;43.45;;;;;;;0.91;100.00;99306.08;10107131;86;21134;-93
2020/12/30 08:30:32;;;;;;;74.82;35.33;;;;;;;1.05;100.00;99295.69;9948214;88;21135;-94
2020/12/30 08:45:42;;;;;;;502.85;130.47;;;;;;;1.36;100.00;99295.45;9976656;87;21885;-93
2020/12/30 09:00:47;;;;;;;471.57;195.45;;;;;;;1.36;100.00;99295.45;9935744;88;21585;-93
2020/12/30 09:15:54;;;;;;;257.70;95.25;;;;;;;1.54;100.00;99291.66;9946160;87;21377;-93
2020/12/30 09:30:58;;;;;;;417.77;169.50;;;;;;;1.96;100.00;99280.64;9932551;88;21164;-92
2020/12/30 09:46:04;;;;;;;510.35;220.63;;;;;;;2.52;100.00;99294.97;9929235;88;21144;-93
2020/12/30 10:01:09;;;;;;;404.83;142.90;;;;;;;2.50;100.00;99298.92;10094606;86;21502;-90
2020/12/30 10:16:13;;;;;;;422.60;173.75;;;;;;;2.93;100.00;99294.22;10122749;86;21099;-92
2020/12/30 10:31:18;;;;;;;509.07;237.50;;;;;;;3.05;100.00;99295.95;9911225;88;21163;-90
2020/12/30 10:46:23;;;;;;;303.50;125.30;;;;;;;3.04;100.00;99272.26;10095388;86;21163;-90
2020/12/30 11:01:27;;;;;;;168.37;70.55;;;;;;;3.07;100.00;99258.25;9916674;88;21553;-94
2020/12/30 11:16:32;;;;;;;283.68;119.02;;;;;;;3.27;100.00;99228.27;10082116;86;21223;-92
2020/12/30 11:31:39;;;;;;;181.65;83.85;;;;;;;3.49;100.00;99233.48;10087328;86;21135;-92
2020/12/30 11:46:44;;;;;;;206.82;63.13;;;;;;;3.45;100.00;99217.81;10075109;86;21127;-88
2020/12/30 12:01:48;;;;;;;206.95;73.60;;;;;;;3.71;100.00;99215.02;10136887;86;21227;-89
2020/12/30 12:16:53;;;;;;;295.42;105.92;;;;;;;3.80;100.00;99222.09;10124348;86;21159;-91
2020/12/30 12:32:07;;;;;;;212.30;70.03;;;;;;;3.71;100.00;99222.80;9964659;86;21818;-91
2020/12/30 12:47:12;;;;;;;81.65;38.67;;;;;;;3.48;100.00;99225.83;9874608;88;21077;-90
2020/12/30 13:02:19;;;;;;;221.07;83.25;;;;;;;3.48;100.00;99224.53;9865644;88;21113;-89
2020/12/30 13:17:24;;;;;;;270.70;86.25;;;;;;;3.47;100.00;99208.16;9914446;88;21053;-90
2020/12/30 13:32:28;;;;;;;333.65;92.85;;;;;;;3.37;100.00;99204.60;9916267;88;21092;-92
2020/12/30 13:47:32;;;;;;;218.90;66.60;;;;;;;3.16;100.00;99196.19;10131935;86;21556;-90
2020/12/30 14:02:37;;;;;;;395.18;148.80;;;;;;;3.06;100.00;99208.20;10104202;86;21108;-92
2020/12/30 14:17:41;;;;;;;677.70;273.73;;;;;;;2.89;100.00;99210.73;10092025;86;21095;-92
2020/12/30 14:32:45;;;;;;;511.35;213.65;;;;;;;2.76;100.00;99227.63;9927646;88;21126;-90
2020/12/30 14:47:51;;;;;;;462.88;174.72;;;;;;;2.56;100.00;99234.25;10087270;86;21083;-92
2020/12/30 15:02:58;;;;;;;227.97;95.70;;;;;;;2.43;100.00;99233.45;9939766;88;21258;-91
2020/12/30 15:18:02;;;;;;;193.43;78.40;;;;;;;2.21;100.00;99249.20;10108213;86;21095;-91
2020/12/30 15:33:08;;;;;;;268.27;106.15;;;;;;;2.12;100.00;99268.77;10098805;86;21102;-91
2020/12/30 15:48:12;;;;;;;287.23;113.40;;;;;;;2.12;100.00;99268.77;9939888;88;21109;-89
2020/12/30 16:03:18;;;;;;;362.88;134.93;;;;;;;1.93;100.00;99271.00;10128503;86;21142;-91
2020/12/30 16:18:23;;;;;;;381.97;151.70;;;;;;;1.87;100.00;99279.98;9994776;87;21112;-89
2020/12/30 16:33:28;;;;;;;749.75;338.12;;;;;;;1.80;100.00;99283.45;9927837;88;21676;-90
2020/12/30 16:48:33;;;;;;;879.27;385.32;;;;;;;1.64;100.00;99273.31;10062789;88;21066;-88
2020/12/30 17:03:37;;;;;;;545.35;218.10;;;;;;;1.58;100.00;99271.13;10104341;86;21114;-91
2020/12/30 17:18:42;;;;;;;585.85;237.20;;;;;;;0.98;100.00;99277.66;9941282;88;21104;-89
2020/12/30 17:33:48;;;;;;;419.25;166.80;;;;;;;0.82;100.00;99279.92;9969030;86;21116;-90
2020/12/30 17:48:52;;;;;;;275.40;110.60;;;;;;;0.82;100.00;99279.92;9903557;87;21210;-91
2020/12/30 18:03:58;;;;;;;287.80;105.05;;;;;;;0.73;100.00;99301.16;9916529;88;21199;-88
2020/12/30 18:19:02;;;;;;;253.85;99.20;;;;;;;0.59;100.00;99298.13;9994510;88;21528;-90
2020/12/30 18:34:07;;;;;;;407.92;151.78;;;;;;;0.44;100.00;99325.73;9957135;88;21119;-90
2020/12/30 18:49:11;;;;;;;480.37;193.40;;;;;;;0.76;100.00;99329.83;9922300;88;21287;-90
2020/12/30 19:04:16;;;;;;;631.87;247.50;;;;;;;0.86;100.00;99330.06;9887527;88;21254;-91
2020/12/30 19:19:21;;;;;;;759.77;271.82;;;;;;;0.69;100.00;99342.30;9900509;88;21155;-90
2020/12/30 19:34:25;;;;;;;807.67;273.35;;;;;;;0.66;100.00;99372.18;10082422;86;21128;-89
2020/12/30 19:49:29;;;;;;;491.20;179.70;;;;;;;0.65;100.00;99370.52;10114913;86;21120;-89
2020/12/30 20:04:34;;;;;;;389.10;144.28;;;;;;;0.49;100.00;99379.66;9927225;88;21100;-89
2020/12/30 20:19:38;;;;;;;572.25;194.20;;;;;;;0.28;100.00;99389.52;9919421;88;21091;-89
2020/12/30 20:34:43;;;;;;;428.82;148.10;;;;;;;0.18;100.00;99397.44;9987910;88;21083;-90
2020/12/30 20:49:48;;;;;;;561.90;197.70;;;;;;;0.03;100.00;99406.44;9922879;88;21086;-89
2020/12/30 21:04:53;;;;;;;291.10;108.17;;;;;;;-0.06;100.00;99394.90;9907795;88;21080;-91
2020/12/30 21:19:58;;;;;;;346.30;130.73;;;;;;;-0.30;100.00;99409.20;9891425;88;21085;-91
2020/12/30 21:35:03;;;;;;;285.05;99.58;;;;;;;-0.62;100.00;99424.28;9905921;88;21109;-90
2020/12/30 21:50:07;;;;;;;220.55;93.85;;;;;;;-0.64;100.00;99428.67;10095345;86;21075;-87
2020/12/30 22:05:12;;;;;;;261.43;101.97;;;;;;;-0.82;100.00;99428.40;9895180;88;21127;-91
2020/12/30 22:20:16;;;;;;;209.65;86.00;;;;;;;-0.87;100.00;99426.91;10081865;86;21127;-94
2020/12/30 22:35:21;;;;;;;210.13;86.87;;;;;;;-0.88;100.00;99429.10;10107041;86;21060;-92
2020/12/30 22:50:25;;;;;;;186.10;75.40;;;;;;;-0.96;100.00;99439.00;10111595;86;21071;-91
2020/12/30 23:05:29;;;;;;;242.87;84.95;;;;;;;-1.08;100.00;99455.08;9950676;88;21243;-88
2020/12/30 23:20:35;;;;;;;253.20;91.90;;;;;;;-1.24;100.00;99464.92;10111874;86;21107;-90
2020/12/30 23:35:40;;;;;;;244.43;93.77;;;;;;;-1.31;100.00;99464.03;9884298;88;21196;-90
2020/12/30 23:50:44;;;;;;;273.75;98.10;;;;;;;-1.33;100.00;99456.39;9893479;88;21223;-89
